Matamoras, Pennsylvania
Current Conditions -  °F | °C
As of 9:53 PM on Thursday 27 Nov 2014 (Local Time) from KFWN Reporting Station
Clear Clear  
Wind Chill: -4°   Ceiling: Unl
Heat Index: -1°   Visibility: 10mi
Dew Point: -5°   Wind: 6mph
Humidity: 72%   Direction: 320°NW
Pressure: 30.06"   Gusts: NA
Location:  41.37°N, 74.7°W
Report Text: KFWN 280253Z AUTO 32005KT 10SM CLR M01/M05 A3006 RMK AO2 SLP184 T10061050 51010
Loading
Personal Weather Stations






























Interactive Weather Map New forecast layout! Learn more

10-Day Weather Forecast

Advertisements
Track Severe Weather on mobile